Time;durP1;ratioP1;P1;durP2;ratioP2;P2;SDS_P1;SDS_P2;PMS_P1;PMS_P2;Temp;Humidity;BMP_temperature;BMP_pressure;BME280_temperature;BME280_humidity;BME280_pressure;Samples;Min_cycle;Max_cycle;Signal;HPM_P1;HPM_P2
2022/02/02 00:02:16;;;;;;;10.18;6.90;;;11.30;99.90;;;;;;5090186;28;20035;-67
2022/02/02 00:04:47;;;;;;;13.40;7.75;;;11.30;99.90;;;;;;5080863;28;20515;-66
2022/02/02 00:07:30;;;;;;;;;;;11.30;99.90;;;;;;5087867;28;20028;-67
2022/02/02 00:10:07;;;;;;;14.93;7.35;;;11.30;99.90;;;;;;5085423;28;20080;-66
2022/02/02 00:17:51;;;;;;;;;;;11.30;99.90;;;;;;5092224;28;20469;-67
2022/02/02 00:20:29;;;;;;;13.82;6.57;;;11.20;99.90;;;;;;5089896;28;19943;-67
2022/02/02 00:22:59;;;;;;;12.77;6.68;;;11.20;99.90;;;;;;5080783;28;20028;-67
2022/02/02 00:25:32;;;;;;;17.27;7.18;;;11.20;99.90;;;;;;5085820;28;20035;-67
2022/02/02 00:28:00;;;;;;;12.52;7.28;;;11.20;99.90;;;;;;5096926;28;20024;-66
2022/02/02 00:30:31;;;;;;;13.85;6.60;;;11.20;99.90;;;;;;5085998;28;20781;-67
2022/02/02 00:35:27;;;;;;;11.50;5.57;;;11.20;99.90;;;;;;5083796;28;19908;-66
2022/02/02 00:37:53;;;;;;;13.52;6.22;;;11.20;99.90;;;;;;5087535;28;20044;-67
2022/02/02 00:40:19;;;;;;;14.82;6.00;;;11.10;99.90;;;;;;5086434;28;20399;-67
2022/02/02 00:42:48;;;;;;;12.80;6.40;;;11.20;99.90;;;;;;5086027;28;20059;-66
2022/02/02 00:45:14;;;;;;;9.65;5.63;;;11.20;99.90;;;;;;5073057;28;20028;-67
2022/02/02 00:47:41;;;;;;;12.45;5.60;;;11.10;99.90;;;;;;5094202;28;20843;-66
2022/02/02 00:50:07;;;;;;;8.43;5.18;;;11.20;99.90;;;;;;5093418;28;20035;-67
2022/02/02 00:52:33;;;;;;;10.23;6.15;;;11.20;99.90;;;;;;5092342;28;20031;-67
2022/02/02 00:54:59;;;;;;;11.07;6.15;;;11.20;99.90;;;;;;5086674;28;20582;-67
2022/02/02 00:57:28;;;;;;;10.02;5.90;;;11.20;99.90;;;;;;5077273;28;20068;-67
2022/02/02 00:59:55;;;;;;;13.18;6.40;;;11.20;99.90;;;;;;5087055;28;20483;-67
2022/02/02 01:02:21;;;;;;;10.13;5.57;;;11.20;99.90;;;;;;5088115;28;20035;-67
2022/02/02 01:04:47;;;;;;;11.18;6.10;;;11.20;99.90;;;;;;5076790;28;20048;-66
2022/02/02 01:07:36;;;;;;;10.45;5.53;;;11.20;99.90;;;;;;5082526;28;20063;-67
2022/02/02 01:10:19;;;;;;;8.77;5.55;;;11.20;99.90;;;;;;5080159;28;20024;-67
2022/02/02 01:12:52;;;;;;;8.48;5.18;;;11.20;99.90;;;;;;5083741;28;20056;-66
2022/02/02 01:18:21;;;;;;;9.75;5.07;;;11.10;99.90;;;;;;5086888;28;20039;-66
2022/02/02 01:28:34;;;;;;;9.25;4.60;;;11.10;99.90;;;;;;5082786;28;20081;-67
2022/02/02 01:31:01;;;;;;;10.80;4.63;;;11.10;99.90;;;;;;5087234;28;20043;-67
2022/02/02 01:33:28;;;;;;;9.88;4.80;;;11.10;99.90;;;;;;5087271;28;20074;-67
2022/02/02 01:35:54;;;;;;;8.95;4.60;;;11.10;99.90;;;;;;5079379;28;20020;-67
2022/02/02 01:38:22;;;;;;;9.40;4.55;;;11.10;99.90;;;;;;5088137;28;20036;-67
2022/02/02 01:40:53;;;;;;;7.07;3.65;;;11.10;99.90;;;;;;5093756;28;20063;-66
2022/02/02 01:43:24;;;;;;;6.72;4.03;;;11.10;99.90;;;;;;5088855;28;20403;-66
2022/02/02 01:46:00;;;;;;;;;;;11.10;99.90;;;;;;5081329;28;20052;-67
2022/02/02 01:51:17;;;;;;;7.75;4.07;;;11.10;99.90;;;;;;5092110;28;20028;-67
2022/02/02 01:53:54;;;;;;;6.13;3.38;;;11.10;99.90;;;;;;5104666;28;20071;-67
2022/02/02 01:56:20;;;;;;;6.32;3.50;;;11.10;99.90;;;;;;5088118;28;20021;-67
2022/02/02 01:59:09;;;;;;;5.20;2.80;;;11.10;99.90;;;;;;5088934;28;20044;-66
2022/02/02 02:01:34;;;;;;;5.70;2.30;;;11.10;99.90;;;;;;5083769;28;20111;-67
2022/02/02 02:04:00;;;;;;;4.55;1.70;;;11.10;99.90;;;;;;5085107;28;20054;-66
2022/02/02 02:06:26;;;;;;;3.42;1.55;;;11.10;99.90;;;;;;5080516;28;20103;-67
2022/02/02 02:08:52;;;;;;;3.65;1.30;;;11.10;99.90;;;;;;5080496;28;20031;-67
2022/02/02 02:11:21;;;;;;;2.97;1.30;;;11.10;99.90;;;;;;5092283;28;20032;-67
2022/02/02 02:16:32;;;;;;;3.00;1.10;;;11.10;99.90;;;;;;5081277;28;20024;-67
2022/02/02 02:18:58;;;;;;;2.20;1.05;;;11.00;99.90;;;;;;5085999;28;20549;-67
2022/02/02 02:21:25;;;;;;;2.70;1.10;;;11.00;99.90;;;;;;5089192;28;20029;-67
2022/02/02 02:23:51;;;;;;;3.85;1.08;;;11.00;99.90;;;;;;5097365;28;20035;-67
2022/02/02 02:26:26;;;;;;;4.13;1.10;;;11.10;99.90;;;;;;5104065;28;20163;-67
2022/02/02 02:31:56;;;;;;;2.85;1.17;;;11.00;99.90;;;;;;5080513;28;20089;-67
2022/02/02 03:01:20;;;;;;;3.22;1.30;;;11.00;99.90;;;;;;5087789;28;20394;-67
2022/02/02 03:31:33;;;;;;;3.42;1.90;;;11.00;99.90;;;;;;5044647;28;20102;-67
2022/02/02 03:53:41;;;;;;;5.82;2.00;;;10.90;99.90;;;;;;5048022;28;20059;-67
2022/02/02 04:01:33;;;;;;;4.95;2.35;;;10.90;99.90;;;;;;5068445;28;20435;-67
2022/02/02 04:06:58;;;;;;;5.22;2.50;;;10.90;99.90;;;;;;5054723;28;20048;-67
2022/02/02 04:09:25;;;;;;;4.38;2.28;;;10.90;99.90;;;;;;5051677;28;20025;-67
2022/02/02 04:12:05;;;;;;;4.63;2.45;;;10.90;99.90;;;;;;5066089;28;20889;-67
2022/02/02 04:17:56;;;;;;;4.90;2.35;;;10.90;99.90;;;;;;5026313;28;20064;-67
2022/02/02 04:59:00;;;;;;;4.47;1.40;;;10.80;99.90;;;;;;5043356;28;20144;-67
2022/02/02 05:06:48;;;;;;;2.30;1.10;;;10.80;99.90;;;;;;5052468;28;20626;-67
2022/02/02 05:09:38;;;;;;;2.83;1.17;;;10.70;99.90;;;;;;5062706;28;20029;-67
2022/02/02 05:45:10;;;;;;;2.95;0.90;;;10.50;99.90;;;;;;4990096;28;20054;-67
2022/02/02 05:52:47;;;;;;;2.40;0.90;;;10.50;99.90;;;;;;4987739;28;20089;-68
2022/02/02 05:55:13;;;;;;;2.13;0.90;;;10.50;99.90;;;;;;4989465;28;20038;-68
2022/02/02 05:57:45;;;;;;;2.17;0.90;;;10.50;99.90;;;;;;4987972;28;20038;-67
2022/02/02 06:00:12;;;;;;;2.15;1.00;;;10.50;99.90;;;;;;5006904;28;20099;-68
2022/02/02 06:02:39;;;;;;;2.97;1.00;;;10.50;99.90;;;;;;5023068;28;20095;-68
2022/02/02 06:05:08;;;;;;;2.33;1.00;;;10.50;99.90;;;;;;5015351;28;20129;-68
2022/02/02 06:07:39;;;;;;;3.50;1.10;;;10.50;99.90;;;;;;5021706;28;20030;-68
2022/02/02 06:10:08;;;;;;;3.00;0.98;;;10.50;99.90;;;;;;5029002;28;20056;-68
2022/02/02 06:12:34;;;;;;;2.53;1.05;;;10.50;99.90;;;;;;5033159;28;20026;-69
2022/02/02 06:15:07;;;;;;;2.42;1.00;;;10.50;99.90;;;;;;5027958;28;20088;-69
2022/02/02 06:17:38;;;;;;;2.30;1.00;;;10.50;99.90;;;;;;5023054;28;20045;-68
2022/02/02 06:20:05;;;;;;;3.00;1.38;;;10.50;99.90;;;;;;5025707;28;20151;-70
2022/02/02 06:22:32;;;;;;;4.95;1.33;;;10.50;99.90;;;;;;5083889;28;20042;-68
2022/02/02 06:25:21;;;;;;;3.10;1.15;;;10.50;99.90;;;;;;5090738;28;20026;-68
2022/02/02 06:27:56;;;;;;;3.58;1.50;;;10.50;99.90;;;;;;5086363;28;20483;-68
2022/02/02 06:30:25;;;;;;;4.50;1.63;;;10.50;99.90;;;;;;5097092;28;20027;-68
2022/02/02 06:32:56;;;;;;;4.13;1.65;;;10.50;99.90;;;;;;5077124;28;20036;-69
2022/02/02 06:35:22;;;;;;;2.97;1.17;;;10.50;99.90;;;;;;5090285;28;20027;-69
2022/02/02 06:37:49;;;;;;;3.50;1.20;;;10.40;99.90;;;;;;5087166;28;20395;-68
2022/02/02 06:40:17;;;;;;;6.28;1.38;;;10.50;99.90;;;;;;5089801;28;20501;-67
2022/02/02 06:42:43;;;;;;;2.70;1.00;;;10.50;99.90;;;;;;5091463;28;20093;-67
2022/02/02 06:45:10;;;;;;;3.47;1.00;;;10.40;99.90;;;;;;5100598;28;20078;-67
2022/02/02 06:47:37;;;;;;;4.03;0.90;;;10.40;99.90;;;;;;5089495;28;20048;-68
2022/02/02 06:50:17;;;;;;;4.25;0.80;;;10.40;99.90;;;;;;5081010;28;20403;-68
2022/02/02 06:52:53;;;;;;;5.85;0.95;;;10.40;99.90;;;;;;5082878;28;20020;-68
2022/02/02 06:55:32;;;;;;;4.18;0.80;;;10.50;99.90;;;;;;5082625;28;20055;-68
2022/02/02 07:00:36;;;;;;;3.92;0.70;;;10.40;99.90;;;;;;5057134;28;20435;-66
2022/02/02 07:03:22;;;;;;;3.80;0.90;;;10.40;99.90;;;;;;5057061;28;20028;-67
2022/02/02 07:06:06;;;;;;;3.65;0.82;;;10.40;99.90;;;;;;5058607;28;20123;-67
2022/02/02 07:08:59;;;;;;;4.07;1.00;;;10.40;99.90;;;;;;5049877;28;20029;-67
2022/02/02 07:11:43;;;;;;;6.32;1.10;;;10.50;99.90;;;;;;5059387;28;20044;-67
2022/02/02 07:14:24;;;;;;;5.93;1.27;;;10.40;99.90;;;;;;5046572;28;20022;-67
2022/02/02 07:17:08;;;;;;;6.13;1.13;;;10.40;99.90;;;;;;5046805;28;20586;-67
2022/02/02 07:20:00;;;;;;;5.43;1.20;;;10.40;99.90;;;;;;5033150;28;20504;-68
2022/02/02 07:25:33;;;;;;;8.85;1.45;;;10.50;99.90;;;;;;5041603;28;20036;-67
2022/02/02 07:28:19;;;;;;;8.43;1.33;;;10.40;99.90;;;;;;5033413;28;20028;-66
2022/02/02 07:31:09;;;;;;;10.23;1.38;;;10.60;99.90;;;;;;5036251;28;20029;-67
2022/02/02 07:33:41;;;;;;;8.75;1.65;;;10.40;99.90;;;;;;5031067;28;20037;-67
2022/02/02 07:36:16;;;;;;;7.20;1.50;;;10.60;99.90;;;;;;5028628;28;20033;-67
2022/02/02 07:39:06;;;;;;;10.20;1.70;;;10.40;99.90;;;;;;5041901;28;20068;-67
2022/02/02 07:41:37;;;;;;;10.57;1.55;;;10.20;99.90;;;;;;5027323;28;20060;-67
2022/02/02 07:44:14;;;;;;;9.35;1.40;;;11.10;99.90;;;;;;5033337;28;20025;-67
2022/02/02 07:46:51;;;;;;;5.80;1.40;;;10.20;99.90;;;;;;5036708;28;20455;-67
2022/02/02 07:49:22;;;;;;;6.40;1.30;;;10.70;99.90;;;;;;5041862;28;20030;-66
2022/02/02 07:51:52;;;;;;;7.25;1.17;;;10.40;99.90;;;;;;5036281;28;20484;-68
2022/02/02 07:54:23;;;;;;;4.28;1.00;;;11.00;99.90;;;;;;5053459;28;20052;-67
2022/02/02 07:56:50;;;;;;;10.25;1.20;;;10.50;99.90;;;;;;5031189;28;20041;-68
2022/02/02 07:59:49;;;;;;;8.57;1.20;;;11.20;99.90;;;;;;5044523;28;20073;-68
2022/02/02 08:02:05;;;;;;;11.30;1.48;;;10.20;99.90;;;;;;5041721;28;20412;-68
2022/02/02 08:04:31;;;;;;;8.38;1.30;;;10.60;99.90;;;;;;5044012;28;20113;-68
2022/02/02 08:06:58;;;;;;;7.55;1.25;;;11.40;99.90;;;;;;5047489;28;20029;-68
2022/02/02 08:12:00;;;;;;;7.15;1.10;;;11.40;99.90;;;;;;5029828;28;20040;-67
2022/02/02 08:14:28;;;;;;;6.68;1.08;;;10.60;99.90;;;;;;5026196;28;20079;-68
2022/02/02 08:16:54;;;;;;;5.28;1.35;;;;;;;;;;5018923;28;20499;-68
2022/02/02 08:20:10;;;;;;;10.00;1.30;;;11.00;99.90;;;;;;5027299;28;20048;-68
2022/02/02 08:22:38;;;;;;;4.15;1.00;;;11.50;99.90;;;;;;5031826;28;20086;-68
2022/02/02 08:25:06;;;;;;;6.82;1.20;;;11.00;99.90;;;;;;5028654;28;20032;-69
2022/02/02 08:27:38;;;;;;;6.03;1.20;;;;;;;;;;5041383;28;20045;-68
2022/02/02 08:30:11;;;;;;;7.90;1.60;;;10.70;99.90;;;;;;5030754;28;20523;-68
2022/02/02 08:32:43;;;;;;;6.35;1.25;;;;;;;;;;5034779;28;20021;-68
2022/02/02 08:35:10;;;;;;;8.48;1.50;;;9.20;99.90;;;;;;5031725;28;20041;-68
2022/02/02 08:37:38;;;;;;;9.13;1.45;;;11.20;99.90;;;;;;5028964;28;20473;-68
2022/02/02 08:40:20;;;;;;;10.85;1.60;;;11.00;99.90;;;;;;5032324;28;20041;-67
2022/02/02 08:42:46;;;;;;;11.13;2.00;;;;;;;;;;5029363;28;20243;-67
2022/02/02 08:47:38;;;;;;;8.93;1.90;;;;;;;;;;5045714;28;20021;-67
2022/02/02 08:50:06;;;;;;;9.20;2.30;;;11.00;99.90;;;;;;5032782;28;20029;-67
2022/02/02 08:52:45;;;;;;;9.27;2.33;;;;;;;;;;5031689;28;20103;-68
2022/02/02 08:55:13;;;;;;;10.07;2.42;;;11.80;99.90;;;;;;5031988;28;20026;-67
2022/02/02 08:57:44;;;;;;;10.75;2.40;;;;;;;;;;5030258;28;20037;-67
2022/02/02 09:00:13;;;;;;;8.10;2.20;;;10.70;99.90;;;;;;5026729;28;20423;-67
2022/02/02 09:02:52;;;;;;;11.65;2.47;;;11.50;99.90;;;;;;5035305;28;20522;-67
2022/02/02 09:05:24;;;;;;;9.85;2.05;;;;;;;;;;5034209;28;20039;-67
2022/02/02 09:07:51;;;;;;;4.88;1.40;;;11.20;99.90;;;;;;5031531;28;20021;-68
2022/02/02 09:20:00;;;;;;;7.47;1.55;;;11.30;99.90;;;;;;5031381;28;20033;-68
2022/02/02 09:24:21;;;;;;;7.72;1.20;;;10.50;99.90;;;;;;5007276;28;20076;-67
2022/02/02 09:34:57;;;;;;;8.80;1.67;;;;;;;;;;5011300;28;20037;-67
2022/02/02 09:37:24;;;;;;;6.82;1.88;;;12.10;99.90;;;;;;5011267;28;20105;-67
2022/02/02 09:40:03;;;;;;;10.80;4.25;;;12.20;99.90;;;;;;5011234;28;20076;-67
2022/02/02 09:42:32;;;;;;;11.07;3.67;;;11.70;99.90;;;;;;5008406;28;20108;-67
2022/02/02 09:45:02;;;;;;;6.20;1.77;;;10.70;99.90;;;;;;5001533;28;20465;-67
2022/02/02 09:47:34;;;;;;;5.95;1.30;;;;;;;;;;5012259;28;20088;-67
2022/02/02 09:50:11;;;;;;;6.88;1.10;;;11.70;99.90;;;;;;5004582;28;20054;-66
2022/02/02 09:52:41;;;;;;;7.47;2.05;;;;;;;;;;5013099;28;20029;-67
2022/02/02 09:55:31;;;;;;;;;;;11.70;99.90;;;;;;5029127;28;20033;-67
2022/02/02 09:58:31;;;;;;;7.05;1.50;;;11.20;99.90;;;;;;5035748;28;19908;-66
2022/02/02 10:06:07;;;;;;;7.88;1.73;;;11.60;99.90;;;;;;5027515;28;20400;-67
2022/02/02 10:14:23;;;;;;;9.00;1.67;;;11.60;99.90;;;;;;5035656;28;20064;-66
2022/02/02 10:16:49;;;;;;;8.00;1.95;;;11.90;99.90;;;;;;5026357;28;20404;-66
2022/02/02 10:19:18;;;;;;;10.52;1.88;;;11.60;99.90;;;;;;5032700;28;20052;-67
2022/02/02 10:21:45;;;;;;;8.82;1.80;;;12.00;99.90;;;;;;5037585;28;20025;-67
2022/02/02 10:24:11;;;;;;;7.15;1.50;;;11.70;99.90;;;;;;5026291;28;20045;-66
2022/02/02 10:26:48;;;;;;;8.77;1.85;;;11.70;99.90;;;;;;5036606;28;20033;-65
2022/02/02 10:29:15;;;;;;;9.43;1.80;;;;;;;;;;5028619;28;20030;-66
2022/02/02 10:31:47;;;;;;;9.70;1.60;;;11.40;99.90;;;;;;5032112;28;20036;-66
2022/02/02 10:34:16;;;;;;;8.98;1.50;;;11.70;99.90;;;;;;5035469;28;20420;-66
2022/02/02 10:36:42;;;;;;;9.68;1.63;;;11.50;99.90;;;;;;5029495;28;20048;-65
2022/02/02 10:39:13;;;;;;;12.75;1.70;;;11.80;99.90;;;;;;5027623;28;20037;-66
2022/02/02 10:41:56;;;;;;;11.55;1.88;;;12.60;99.90;;;;;;5033415;28;20029;-66
2022/02/02 10:44:24;;;;;;;11.90;1.77;;;;;;;;;;5033186;28;20408;-66
2022/02/02 10:47:00;;;;;;;11.30;1.63;;;11.90;99.90;;;;;;5029860;28;20059;-66
2022/02/02 10:49:42;;;;;;;11.30;1.80;;;;;;;;;;5029348;28;20504;-66
2022/02/02 10:52:29;;;;;;;13.30;2.00;;;12.70;99.90;;;;;;5029464;28;20071;-66
2022/02/02 11:06:37;;;;;;;14.00;1.80;;;;;;;;;;4971826;28;20124;-66
2022/02/02 11:09:11;;;;;;;13.98;1.80;;;12.20;97.90;;;;;;4970939;28;20545;-67
2022/02/02 11:11:56;;;;;;;11.48;1.70;;;12.20;99.90;;;;;;4972729;28;20133;-66
2022/02/02 11:14:39;;;;;;;12.07;1.58;;;12.00;99.90;;;;;;4982337;28;20486;-67
2022/02/02 11:17:29;;;;;;;12.35;2.03;;;12.10;99.90;;;;;;4976012;28;20524;-66
2022/02/02 11:20:01;;;;;;;8.82;2.00;;;12.30;96.80;;;;;;4979618;28;20284;-67
2022/02/02 11:22:49;;;;;;;11.50;1.88;;;12.60;99.90;;;;;;4974821;28;20058;-66
2022/02/02 11:25:15;;;;;;;15.77;2.30;;;;;;;;;;4975504;28;20066;-67
2022/02/02 11:27:46;;;;;;;11.30;2.72;;;13.30;97.30;;;;;;4982998;28;20035;-66
2022/02/02 11:30:23;;;;;;;;;;;12.50;96.70;;;;;;4977338;28;20037;-67
2022/02/02 11:33:00;;;;;;;15.80;2.90;;;12.60;96.70;;;;;;4972270;28;19913;-67
2022/02/02 11:35:46;;;;;;;13.98;2.95;;;12.60;96.30;;;;;;4966660;28;20101;-67
2022/02/02 11:38:23;;;;;;;13.90;2.35;;;12.60;99.90;;;;;;5009725;28;20512;-66
2022/02/02 11:41:09;;;;;;;12.25;2.28;;;12.80;95.70;;;;;;5030363;28;20032;-66
2022/02/02 11:44:06;;;;;;;13.48;2.10;;;12.90;94.50;;;;;;5034949;28;20041;-67
2022/02/02 11:46:59;;;;;;;10.88;2.15;;;13.00;99.90;;;;;;5026871;28;20403;-67
2022/02/02 11:49:25;;;;;;;11.57;2.40;;;;;;;;;;5035922;28;20032;-67
2022/02/02 11:51:58;;;;;;;14.45;2.65;;;13.00;94.10;;;;;;5030158;28;20099;-67
2022/02/02 11:54:40;;;;;;;13.43;2.50;;;13.20;94.00;;;;;;5038071;28;20030;-67
2022/02/02 12:02:18;;;;;;;17.40;3.10;;;13.20;99.90;;;;;;5040096;28;20534;-68
2022/02/02 12:05:00;;;;;;;13.00;2.20;;;13.10;93.40;;;;;;5038699;28;20025;-66
2022/02/02 12:07:54;;;;;;;11.38;2.03;;;13.10;93.30;;;;;;5032996;28;20068;-67
2022/02/02 12:11:05;;;;;;;10.00;2.05;;;13.20;92.70;;;;;;5035047;28;20033;-66
2022/02/02 12:58:11;;;;;;;11.57;2.40;;;13.80;93.00;;;;;;5019582;28;20044;-67
2022/02/02 13:01:07;;;;;;;12.18;2.13;;;;;;;;;;5014370;28;20488;-69
2022/02/02 13:03:28;;;;;;;14.05;2.35;;;13.80;90.00;;;;;;5018444;28;20539;-68
2022/02/02 13:05:55;;;;;;;14.25;2.30;;;;;;;;;;5025602;28;20021;-68
2022/02/02 13:08:21;;;;;;;14.35;2.42;;;;;;;;;;5015832;28;20034;-68
2022/02/02 13:10:46;;;;;;;13.00;2.30;;;14.30;92.20;;;;;;5020626;28;20392;-68
2022/02/02 13:13:21;;;;;;;16.13;2.45;;;12.30;93.60;;;;;;5023367;28;20033;-69
2022/02/02 13:15:56;;;;;;;13.45;2.22;;;15.00;92.80;;;;;;5014526;28;20041;-69
2022/02/02 13:18:33;;;;;;;15.77;2.63;;;14.60;95.50;;;;;;5018134;28;20416;-69
2022/02/02 13:24:29;;;;;;;17.73;2.50;;;13.70;90.30;;;;;;5038803;28;20086;-69
2022/02/02 13:26:58;;;;;;;10.07;1.90;;;13.50;93.70;;;;;;5029176;28;20046;-69
2022/02/02 13:32:44;;;;;;;14.95;2.47;;;11.20;90.10;;;;;;5005363;28;20045;-69
2022/02/02 13:48:46;;;;;;;12.50;2.30;;;13.60;89.90;;;;;;4994399;28;20085;-69
2022/02/02 13:56:57;;;;;;;13.07;2.60;;;14.60;94.40;;;;;;5006973;28;20042;-68
2022/02/02 13:59:55;;;;;;;14.85;2.40;;;13.50;87.70;;;;;;5003464;28;20854;-73
2022/02/02 14:07:23;;;;;;;12.02;2.50;;;13.70;87.80;;;;;;5009839;28;20044;-73
2022/02/02 14:31:06;;;;;;;13.45;2.00;;;;;;;;;;5032408;28;20443;-73
2022/02/02 14:31:45;;;;;;;14.30;1.88;;;13.80;91.40;;;;;;5029792;28;20048;-73
2022/02/02 14:34:11;;;;;;;11.38;1.90;;;13.80;92.80;;;;;;5029676;28;20052;-73
2022/02/02 14:36:39;;;;;;;13.00;2.20;;;;;;;;;;5028881;28;20022;-71
2022/02/02 14:39:21;;;;;;;13.93;2.17;;;14.30;93.50;;;;;;5042071;28;20426;-73
2022/02/02 14:41:56;;;;;;;11.93;2.53;;;;;;;;;;5032222;28;20030;-73
2022/02/02 14:44:33;;;;;;;10.63;2.33;;;13.70;92.60;;;;;;5030613;28;20083;-73
2022/02/02 14:47:13;;;;;;;16.70;2.17;;;;;;;;;;5029852;28;20124;-73
2022/02/02 15:26:18;;;;;;;11.00;2.78;;;12.90;97.80;;;;;;4987448;28;20045;-71
2022/02/02 15:28:22;;;;;;;9.70;2.63;;;11.70;97.50;;;;;;4987121;28;20026;-72
2022/02/02 15:33:21;;;;;;;13.35;3.55;;;12.70;89.10;;;;;;4979158;28;20027;-71
2022/02/02 15:35:49;;;;;;;14.75;3.40;;;12.30;88.50;;;;;;4986694;28;20045;-72
2022/02/02 15:38:23;;;;;;;20.27;3.53;;;13.20;98.10;;;;;;4987633;28;20898;-71
2022/02/02 15:41:03;;;;;;;13.18;3.83;;;12.20;97.90;;;;;;4986829;28;20054;-71
2022/02/02 16:02:15;;;;;;;12.98;3.70;;;;;;;;;;5016115;28;20037;-72
2022/02/02 16:04:42;;;;;;;14.65;3.95;;;12.50;94.10;;;;;;5032670;28;20076;-71
2022/02/02 16:07:11;;;;;;;17.35;3.80;;;12.40;90.70;;;;;;5035729;28;20552;-71
2022/02/02 16:09:46;;;;;;;12.07;3.15;;;12.30;96.40;;;;;;5027061;28;20091;-71
2022/02/02 16:12:23;;;;;;;14.68;3.22;;;12.20;91.20;;;;;;5031650;28;20084;-70
2022/02/02 16:15:00;;;;;;;14.30;3.30;;;12.30;90.00;;;;;;5026656;28;20029;-70
2022/02/02 16:38:55;;;;;;;17.35;4.00;;;;;;;;;;5008695;28;20038;-72
2022/02/02 16:44:06;;;;;;;21.05;7.35;;;11.80;99.40;;;;;;5020965;28;20112;-72
2022/02/02 16:46:32;;;;;;;17.80;5.13;;;11.90;98.60;;;;;;5006429;28;20460;-71
2022/02/02 16:48:58;;;;;;;19.88;4.63;;;;;;;;;;5007620;28;20042;-72
2022/02/02 16:51:24;;;;;;;16.95;5.97;;;12.50;99.90;;;;;;5006706;28;20100;-73
2022/02/02 16:53:53;;;;;;;18.58;6.05;;;;;;;;;;5005251;28;20037;-73
2022/02/02 17:32:26;;;;;;;15.88;3.42;;;11.50;96.20;;;;;;5041735;28;20742;-77
2022/02/02 17:40:15;;;;;;;12.93;3.58;;;11.30;90.60;;;;;;5039897;28;20036;-76
2022/02/02 18:13:04;;;;;;;14.88;5.88;;;10.60;99.90;;;;;;5027848;28;20511;-71
2022/02/02 18:20:51;;;;;;;13.80;6.63;;;;;;;;;;5025828;28;20124;-74
2022/02/02 18:23:30;;;;;;;16.30;6.78;;;11.10;99.40;;;;;;5028920;28;20408;-73
2022/02/02 18:26:11;;;;;;;11.38;6.10;;;;;;;;;;5030216;28;20258;-73
2022/02/02 18:33:54;;;;;;;11.88;5.90;;;11.10;99.90;;;;;;5019120;28;20460;-71
2022/02/02 18:36:43;;;;;;;10.77;5.18;;;10.40;99.90;;;;;;5022909;28;20021;-69
2022/02/02 18:45:05;;;;;;;9.65;5.47;;;;;;;;;;5031305;28;20121;-69
2022/02/02 18:47:47;;;;;;;7.53;4.68;;;10.40;99.90;;;;;;5024052;28;20652;-71
2022/02/02 19:08:11;;;;;;;10.98;4.82;;;;;;;;;;5030990;28;19978;-77
2022/02/02 19:39:04;;;;;;;8.55;4.97;;;;;;;;;;5028919;28;20144;-72
2022/02/02 20:02:39;;;;;;;11.43;4.93;;;10.10;99.90;;;;;;5029785;28;20073;-71
2022/02/02 20:04:59;;;;;;;9.50;4.78;;;;;;;;;;5028907;28;20514;-72
2022/02/02 20:07:44;;;;;;;9.73;4.82;;;;;;;;;;5031678;28;20028;-72
2022/02/02 20:12:59;;;;;;;9.95;4.28;;;;;;;;;;5014274;28;20041;-72
2022/02/02 20:15:25;;;;;;;9.48;4.40;;;9.00;96.50;;;;;;5010562;28;20416;-72
2022/02/02 20:17:51;;;;;;;10.13;4.30;;;10.00;98.30;;;;;;5012972;28;20165;-72
2022/02/02 20:20:21;;;;;;;9.25;4.70;;;10.40;98.00;;;;;;5014637;28;20048;-72
2022/02/02 20:22:48;;;;;;;14.37;6.00;;;8.30;94.90;;;;;;5006136;28;20033;-73
2022/02/02 20:25:16;;;;;;;14.85;5.60;;;8.70;99.90;;;;;;5005496;28;20041;-73
2022/02/02 20:27:42;;;;;;;15.45;6.90;;;;;;;;;;5012389;28;20528;-73
2022/02/02 20:30:11;;;;;;;11.32;5.22;;;9.40;99.90;;;;;;4997397;28;20050;-73
2022/02/02 20:32:37;;;;;;;11.02;4.63;;;9.70;95.40;;;;;;5009941;28;20249;-74
2022/02/02 20:35:03;;;;;;;9.50;4.10;;;9.70;95.20;;;;;;5010777;28;20037;-73
2022/02/02 20:37:29;;;;;;;12.40;5.20;;;9.00;99.90;;;;;;5006249;28;20117;-73
2022/02/02 20:40:00;;;;;;;12.50;6.55;;;;;;;;;;5009725;28;20509;-73
2022/02/02 20:42:35;;;;;;;10.52;5.82;;;10.30;99.90;;;;;;5004390;28;20092;-74
2022/02/02 21:14:16;;;;;;;17.98;5.50;;;9.50;99.10;;;;;;5036586;28;20480;-73
2022/02/02 21:16:45;;;;;;;11.20;5.70;;;9.80;97.00;;;;;;5031149;28;20044;-73
2022/02/02 21:19:23;;;;;;;12.15;5.50;;;9.70;99.90;;;;;;5028239;28;20045;-73
2022/02/02 21:21:57;;;;;;;10.63;5.45;;;;;;;;;;5036376;28;20083;-73
2022/02/02 21:29:28;;;;;;;9.43;5.60;;;9.90;95.30;;;;;;5053604;28;20038;-73
2022/02/02 21:32:00;;;;;;;10.10;5.53;;;10.30;99.90;;;;;;5028464;28;20036;-73
2022/02/02 21:34:32;;;;;;;9.90;6.13;;;10.30;99.90;;;;;;5030569;28;20021;-73
2022/02/02 21:37:06;;;;;;;10.30;5.50;;;9.90;94.90;;;;;;5034387;28;20111;-73
2022/02/02 21:39:45;;;;;;;11.45;5.70;;;9.90;98.90;;;;;;5028180;28;20048;-73
2022/02/02 21:42:17;;;;;;;10.48;5.68;;;10.10;96.60;;;;;;5037987;28;20381;-73
2022/02/02 21:44:50;;;;;;;11.80;5.68;;;10.40;99.90;;;;;;5032444;28;20034;-73
2022/02/02 21:47:19;;;;;;;11.45;6.40;;;9.90;94.90;;;;;;5041249;28;20571;-73
2022/02/02 21:49:56;;;;;;;10.98;6.10;;;8.00;95.00;;;;;;5035777;28;20165;-73
2022/02/02 21:52:32;;;;;;;12.77;7.03;;;10.60;99.90;;;;;;5034955;28;20120;-73
2022/02/02 21:55:07;;;;;;;13.57;7.60;;;10.00;99.90;;;;;;5030410;28;20037;-74
2022/02/02 21:57:38;;;;;;;11.85;7.20;;;10.00;95.20;;;;;;5024491;28;20156;-73
2022/02/02 22:00:09;;;;;;;12.77;6.90;;;9.90;98.70;;;;;;5025434;28;20049;-73
2022/02/02 22:02:39;;;;;;;13.23;7.20;;;10.00;95.10;;;;;;5033663;28;20041;-73
2022/02/02 22:05:06;;;;;;;13.25;7.03;;;10.00;95.30;;;;;;5029022;28;20488;-73
2022/02/02 22:07:33;;;;;;;11.68;6.70;;;10.10;99.90;;;;;;5030394;28;20034;-73
2022/02/02 22:10:05;;;;;;;12.05;6.35;;;10.40;99.90;;;;;;5028675;28;20510;-72
2022/02/02 22:12:39;;;;;;;11.13;7.07;;;10.00;95.10;;;;;;5037776;28;20034;-73
2022/02/02 22:15:08;;;;;;;10.88;7.30;;;9.90;99.90;;;;;;5029865;28;20017;-73
2022/02/02 22:17:34;;;;;;;11.15;7.35;;;10.00;99.90;;;;;;5037021;28;20469;-73
2022/02/02 22:20:05;;;;;;;11.93;7.35;;;;;;;;;;5030113;28;20048;-72
2022/02/02 22:22:30;;;;;;;;;;;10.00;95.60;;;;;;5036658;28;20025;-73
2022/02/02 22:24:57;;;;;;;13.60;7.63;;;;;;;;;;5034311;28;20030;-73
2022/02/02 22:27:23;;;;;;;13.98;7.88;;;;;;;;;;5028151;28;20155;-73
2022/02/02 22:29:49;;;;;;;10.98;7.22;;;;;;;;;;5030788;28;20389;-73
2022/02/02 22:32:15;;;;;;;12.20;7.75;;;;;;;;;;5041735;28;20028;-73
2022/02/02 22:34:40;;;;;;;13.25;7.63;;;10.20;99.90;;;;;;5041472;28;20060;-73
2022/02/02 22:37:06;;;;;;;12.23;7.85;;;10.90;96.60;;;;;;5040741;28;20071;-73
2022/02/02 22:39:39;;;;;;;12.27;8.05;;;10.20;99.10;;;;;;5026640;28;20084;-74
2022/02/02 22:42:05;;;;;;;14.10;8.43;;;;;;;;;;5044839;28;20631;-73
2022/02/02 22:44:31;;;;;;;13.25;8.45;;;9.90;99.90;;;;;;5033886;28;20036;-73
2022/02/02 22:47:05;;;;;;;13.82;8.05;;;;;;;;;;5029401;28;20446;-73
2022/02/02 22:49:32;;;;;;;17.02;9.65;;;10.60;99.90;;;;;;5034630;28;20059;-73
2022/02/02 22:51:59;;;;;;;14.65;9.48;;;;;;;;;;5034945;28;20026;-73
2022/02/02 22:54:25;;;;;;;14.90;9.60;;;;;;;;;;5043993;28;20037;-73
2022/02/02 22:56:51;;;;;;;14.95;9.40;;;10.30;99.90;;;;;;5030637;28;20029;-73
2022/02/02 22:59:16;;;;;;;15.00;9.00;;;10.00;99.90;;;;;;5030648;28;20053;-73
2022/02/02 23:01:44;;;;;;;15.70;8.77;;;;;;;;;;5026985;28;20171;-73
2022/02/02 23:04:10;;;;;;;17.60;9.30;;;10.60;98.70;;;;;;5030755;28;20033;-73
2022/02/02 23:06:36;;;;;;;15.38;9.70;;;10.50;99.90;;;;;;5032594;28;20026;-74
2022/02/02 23:09:05;;;;;;;15.02;9.82;;;10.40;99.90;;;;;;5029551;28;20520;-73
2022/02/02 23:11:31;;;;;;;13.98;9.43;;;;;;;;;;5040401;28;20029;-73
2022/02/02 23:13:59;;;;;;;17.00;9.85;;;;;;;;;;5028013;28;20154;-73
2022/02/02 23:16:31;;;;;;;17.30;9.80;;;;;;;;;;5031126;28;20029;-72
2022/02/02 23:18:57;;;;;;;14.30;10.23;;;;;;;;;;5027076;28;20041;-72
2022/02/02 23:21:25;;;;;;;14.18;9.77;;;9.80;99.90;;;;;;5034255;28;20497;-72
2022/02/02 23:23:57;;;;;;;14.80;10.27;;;9.80;96.00;;;;;;5034459;28;20447;-72
2022/02/02 23:26:24;;;;;;;15.88;10.13;;;10.00;95.40;;;;;;5032303;28;20037;-72
2022/02/02 23:28:55;;;;;;;16.38;10.18;;;9.90;94.80;;;;;;5026944;28;20044;-72
2022/02/02 23:31:21;;;;;;;15.27;9.93;;;10.30;97.00;;;;;;5031180;28;20492;-72
2022/02/02 23:33:47;;;;;;;16.90;10.25;;;9.90;95.40;;;;;;5030928;28;20040;-72
2022/02/02 23:36:14;;;;;;;14.90;10.23;;;9.80;95.30;;;;;;5026464;28;20018;-72
2022/02/02 23:38:41;;;;;;;13.65;9.85;;;10.10;96.40;;;;;;5032847;28;20034;-72
2022/02/02 23:43:39;;;;;;;14.63;9.88;;;9.90;99.90;;;;;;5033048;28;20083;-72
2022/02/02 23:46:05;;;;;;;15.80;10.85;;;;;;;;;;5033160;28;20060;-73
2022/02/02 23:48:32;;;;;;;13.85;9.95;;;10.30;99.90;;;;;;5030391;28;20080;-72
2022/02/02 23:51:02;;;;;;;15.18;10.48;;;10.30;99.90;;;;;;5033750;28;20083;-72